Terminal Aerodrome Forecast
Issued by NWS

Home | Current Version | Previous Version | Text Only | Print | Product List | Glossary On
Versions: 1 2 3 4 5 6 7 8 9 10 11 12 13 14 15 16 17 18 19 20 21 22 23 24 25
000
FTUS44 KLIX 031600 AAA
TAFMSY
TAF AMD
KMSY 031605Z 0316/0412 16007KT P6SM SCT010 BKN015 BKN022
     FM031800 16010KT P6SM BKN025
     FM040000 16008KT 3SM BR BKN015
     FM040400 16006KT 1/4SM FG BKN008=

USA.gov is the U.S. government's official web portal to all federal, state and local government web resources and services.